EHWO/WOE METAR and TAF weather

Enter ICAO airport designator
Station Type Date Time Source
EHWO METAR 2020/11/28 20:25 UTC NOAA

EHWO 282025Z AUTO 06010KT 020V090 0450 -UP VV000 03/03 Q1022 RED


Station Type Date Time Source
EHWO Decoded METAR 2020/11/28 20:25 UTC NOAA

Woensdrecht, Netherlands (EHWO) 51-27N 004-20E 17M
Nov 28, 2020 - 03:25 PM EST / 2020.11.28 2025 UTC
Wind: from the ENE (060 degrees) at 12 MPH (10 KT) (direction variable):0
Visibility: less than 1 mile:0
Sky conditions: obscured
Weather: light precipitation
Temperature: 37 F (3 C)
Dew Point: 37 F (3 C)
Relative Humidity: 100%
Pressure (altimeter): 30.18 in. Hg (1022 hPa)
ob: EHWO 282025Z AUTO 06010KT 020V090 0450 -UP VV000 03/03 Q1022 RED
cycle: 20

Station Type Date Time Source
EHWO TAF 2020/11/27 10:51 UTC NOAA

TAF EHWO 270939Z 2710/2722 08004KT 4500 BR BKN012
TEMPO 2710/2717 3500 -DZ BR BKN006 PROB40
TEMPO 2710/2715 2000 DZRA BR SCT003 OVC005
BECMG 2715/2718 SCT020
BECMG 2718/2720 4000 BR
BECMG 2720/2722 2500 BR MIFG

Example: see airport list